Time;durP1;ratioP1;P1;durP2;ratioP2;P2;SDS_P1;SDS_P2;PMS_P1;PMS_P2;Temp;Humidity;BMP_temperature;BMP_pressure;BME280_temperature;BME280_humidity;BME280_pressure;Samples;Min_cycle;Max_cycle;Signal;HPM_P1;HPM_P2
2024/01/01 00:01:00;;;;;;;;;;;;;;;6.55;94.49;99395.47;5048353;28;19939;-74
2024/01/01 00:03:25;;;;;;;;;;;;;;;6.56;94.60;99389.09;5049867;28;20363;-75
2024/01/01 00:05:51;;;;;;;;;;;;;;;6.58;93.72;99379.03;5052851;28;20365;-75
2024/01/01 00:08:16;;;;;;;;;;;;;;;6.62;93.38;99385.63;5051078;28;19921;-74
2024/01/01 00:10:44;;;;;;;;;;;;;;;6.63;93.38;99385.41;5109199;22;19920;-75
2024/01/01 00:13:09;;;;;;;;;;;;;;;6.64;93.08;99383.56;5070575;28;19931;-75
2024/01/01 00:15:34;;;;;;;;;;;;;;;6.65;92.77;99382.53;5065307;28;19920;-75
2024/01/01 00:17:59;;;;;;;;;;;;;;;6.68;92.02;99384.81;5071023;28;19920;-75
2024/01/01 00:20:24;;;;;;;;;;;;;;;6.72;91.13;99377.97;5069813;28;19920;-75
2024/01/01 00:22:50;;;;;;;;;;;;;;;6.75;90.70;99395.47;5070839;28;19924;-76
2024/01/01 00:25:15;;;;;;;;;;;;;;;6.76;90.66;99386.44;5055910;28;20019;-75
2024/01/01 00:27:43;;;;;;;;;;;;;;;6.79;90.29;99381.47;5090295;28;19939;-75
2024/01/01 00:30:08;;;;;;;;;;;;;;;6.81;89.25;99371.41;5079327;28;19924;-73
2024/01/01 00:32:34;;;;;;;;;;;;;;;6.86;88.73;99372.63;5070746;28;19943;-72
2024/01/01 00:35:05;;;;;;;;;;;;;;;6.89;87.51;99369.50;5072178;28;19920;-73
2024/01/01 00:37:30;;;;;;;;;;;;;;;6.91;87.71;99381.66;5068948;28;19952;-74
2024/01/01 00:39:55;;;;;;;;;;;;;;;6.93;86.54;99357.38;5060643;28;20042;-74
2024/01/01 00:42:21;;;;;;;;;;;;;;;6.96;86.79;99371.16;5061420;28;19951;-74
2024/01/01 00:44:46;;;;;;;;;;;;;;;6.93;86.90;99360.03;5066567;28;19963;-74
2024/01/01 00:47:11;;;;;;;;;;;;;;;6.92;86.91;99369.09;5069208;28;19924;-74
2024/01/01 00:49:36;;;;;;;;;;;;;;;6.93;85.85;99352.03;5071066;28;19927;-74
2024/01/01 00:52:01;;;;;;;;;;;;;;;7.00;85.53;99355.50;5063253;28;19921;-74
2024/01/01 00:54:28;;;;;;;;;;;;;;;7.00;84.26;99366.22;5072926;28;19921;-74
2024/01/01 00:56:54;;;;;;;;;;;;;;;7.04;83.80;99358.56;5086779;28;19920;-74
2024/01/01 00:59:19;;;;;;;;;;;;;;;7.01;84.95;99367.84;5087913;28;19921;-73
2024/01/01 01:01:47;;;;;;;;;;;;;;;6.92;86.58;99380.63;5071344;28;19924;-73
2024/01/01 01:04:12;;;;;;;;;;;;;;;6.81;87.50;99371.41;5065807;28;19917;-73
2024/01/01 01:06:37;;;;;;;;;;;;;;;6.65;89.74;99382.53;5066945;28;19946;-74
2024/01/01 01:09:04;;;;;;;;;;;;;;;6.60;89.56;99382.31;5066225;28;19921;-74
2024/01/01 01:11:29;;;;;;;;;;;;;;;6.65;88.51;99379.84;5064873;28;20343;-74
2024/01/01 01:13:56;;;;;;;;;;;;;;;6.63;88.52;99366.69;5070485;28;19921;-74
2024/01/01 01:16:23;;;;;;;;;;;;;;;6.60;88.23;99376.97;5072893;28;20441;-74
2024/01/01 01:18:48;;;;;;;;;;;;;;;6.72;86.64;99382.53;5071175;28;19921;-74
2024/01/01 01:21:13;;;;;;;;;;;;;;;6.78;85.34;99379.84;5074483;28;19970;-74
2024/01/01 01:23:39;;;;;;;;;;;;;;;6.78;86.14;99385.19;5072452;28;20585;-75
2024/01/01 01:26:04;;;;;;;;;;;;;;;6.66;87.32;99387.66;5087768;28;19915;-74
2024/01/01 01:28:29;;;;;;;;;;;;;;;6.50;89.08;99356.00;5096243;28;19936;-74
2024/01/01 01:30:55;;;;;;;;;;;;;;;6.32;91.93;99389.53;5084993;28;19928;-74
2024/01/01 01:33:20;;;;;;;;;;;;;;;6.19;93.98;99394.88;5068944;28;19927;-74
2024/01/01 01:35:48;;;;;;;;;;;;;;;6.15;93.81;99389.13;5067922;28;19921;-74
2024/01/01 01:38:13;;;;;;;;;;;;;;;6.16;93.45;99387.25;5075051;28;19928;-74
2024/01/01 01:40:48;;;;;;;;;;;;;;;6.19;94.29;99414.38;5073387;28;19917;-74
2024/01/01 01:43:22;;;;;;;;;;;;;;;6.14;95.10;99416.88;5075383;28;19920;-75
2024/01/01 01:45:48;;;;;;;;;;;;;;;6.13;95.51;99409.88;5070462;28;19920;-75
2024/01/01 01:48:14;;;;;;;;;;;;;;;6.20;95.98;99416.03;5064998;28;19927;-75
2024/01/01 01:50:39;;;;;;;;;;;;;;;6.18;93.43;99396.72;5054638;28;19970;-74
2024/01/01 01:53:04;;;;;;;;;;;;;;;6.20;92.12;99424.06;5053253;28;19931;-75
2024/01/01 01:55:30;;;;;;;;;;;;;;;6.12;90.82;99421.59;5039730;28;19924;-74
2024/01/01 01:57:55;;;;;;;;;;;;;;;6.13;91.52;99414.38;5068889;28;19924;-74
2024/01/01 02:00:20;;;;;;;;;;;;;;;6.14;90.81;99422.22;5072584;28;20300;-75
2024/01/01 02:02:45;;;;;;;;;;;;;;;6.03;91.65;99423.63;5072434;28;20269;-74
2024/01/01 02:05:14;;;;;;;;;;;;;;;6.06;91.59;99395.66;5045688;28;20292;-74
2024/01/01 02:07:45;;;;;;;;;;;;;;;6.08;90.83;99428.34;5066206;28;19921;-75
2024/01/01 02:10:10;;;;;;;;;;;;;;;6.00;90.02;99410.66;5070820;28;19929;-74
2024/01/01 02:12:35;;;;;;;;;;;;;;;5.86;91.16;99400.97;5071077;28;19921;-74
2024/01/01 02:15:00;;;;;;;;;;;;;;;5.81;91.50;99427.44;5070568;28;19928;-74
2024/01/01 02:17:26;;;;;;;;;;;;;;;5.79;91.63;99392.94;5060758;28;20241;-75
2024/01/01 02:19:51;;;;;;;;;;;;;;;5.70;91.78;99426.16;5066205;28;20280;-75
2024/01/01 02:22:16;;;;;;;;;;;;;;;5.58;92.32;99416.06;5064381;28;20284;-75
2024/01/01 02:24:42;;;;;;;;;;;;;;;5.58;93.16;99418.75;5060965;28;20013;-74
2024/01/01 02:27:07;;;;;;;;;;;;;;;5.41;94.15;99418.25;5058560;22;19978;-74
2024/01/01 02:29:32;;;;;;;;;;;;;;;5.34;95.05;99403.22;5049868;28;20017;-74
2024/01/01 02:31:57;;;;;;;;;;;;;;;5.42;95.85;99405.75;5045915;28;20028;-74
2024/01/01 02:34:24;;;;;;;;;;;;;;;5.41;96.24;99417.44;5048550;28;20378;-75
2024/01/01 02:36:49;;;;;;;;;;;;;;;5.36;96.57;99393.19;5045114;28;19924;-74
2024/01/01 02:39:14;;;;;;;;;;;;;;;5.33;97.15;99410.44;5050854;28;20304;-74
2024/01/01 02:41:39;;;;;;;;;;;;;;;5.34;97.98;99405.91;5041792;28;20246;-75
2024/01/01 02:44:05;;;;;;;;;;;;;;;5.28;98.32;99403.03;5041327;28;20062;-74
2024/01/01 02:46:30;;;;;;;;;;;;;;;5.28;99.05;99408.38;5044822;28;20381;-74
2024/01/01 02:48:56;;;;;;;;;;;;;;;5.33;99.09;99399.75;5039030;28;19927;-74
2024/01/01 02:51:21;;;;;;;;;;;;;;;5.34;99.91;99411.25;5049823;28;20015;-74
2024/01/01 02:53:46;;;;;;;;;;;;;;;5.31;100.00;99415.13;5050897;28;19967;-74
2024/01/01 02:56:15;;;;;;;;;;;;;;;5.39;100.00;99411.47;5053102;28;19933;-75
2024/01/01 02:58:40;;;;;;;;;;;;;;;5.38;100.00;99397.31;5051055;28;21421;-74
2024/01/01 03:01:06;;;;;;;;;;;;;;;5.40;100.00;99405.13;5052889;28;19929;-74
2024/01/01 03:03:31;;;;;;;;;;;;;;;5.39;100.00;99382.13;5052584;28;19932;-74
2024/01/01 03:06:02;;;;;;;;;;;;;;;5.47;100.00;99414.00;5050341;28;19929;-74
2024/01/01 03:08:28;;;;;;;;;;;;;;;5.39;100.00;99408.81;5048390;28;19931;-73
2024/01/01 03:10:53;;;;;;;;;;;;;;;5.42;100.00;99414.56;5053606;28;19960;-73
2024/01/01 03:13:18;;;;;;;;;;;;;;;5.49;100.00;99409.25;5036992;28;20019;-73
2024/01/01 03:15:43;;;;;;;;;;;;;;;5.55;100.00;99418.31;5051465;28;19917;-73
2024/01/01 03:18:11;;;;;;;;;;;;;;;5.51;100.00;99428.56;5045913;28;19921;-73
2024/01/01 03:20:37;;;;;;;;;;;;;;;5.47;100.00;99419.31;5044078;28;20023;-74
2024/01/01 03:23:05;;;;;;;;;;;;;;;5.49;100.00;99408.44;5050521;28;20682;-74
2024/01/01 03:25:30;;;;;;;;;;;;;;;5.53;100.00;99409.69;5047458;28;20387;-73
2024/01/01 03:27:56;;;;;;;;;;;;;;;5.49;100.00;99409.25;5044917;28;19924;-73
2024/01/01 03:30:21;;;;;;;;;;;;;;;5.46;100.00;99425.69;5036055;28;20369;-73
2024/01/01 03:32:47;;;;;;;;;;;;;;;5.46;100.00;99415.00;5049577;28;20391;-73
2024/01/01 03:35:12;;;;;;;;;;;;;;;5.41;100.00;99417.44;5047978;28;19921;-74
2024/01/01 03:37:37;;;;;;;;;;;;;;;5.37;100.00;99421.53;5051913;28;20438;-74
2024/01/01 03:40:03;;;;;;;;;;;;;;;5.41;100.00;99420.13;5052943;28;20039;-73
2024/01/01 03:42:33;;;;;;;;;;;;;;;5.42;100.00;99419.09;5047260;28;19931;-73
2024/01/01 03:44:58;;;;;;;;;;;;;;;5.42;100.00;99417.22;5035858;28;19921;-73
2024/01/01 03:47:24;;;;;;;;;;;;;;;5.47;100.00;99411.31;5034583;28;19944;-74
2024/01/01 03:49:52;;;;;;;;;;;;;;;5.54;100.00;99412.16;5053868;28;20031;-73
2024/01/01 03:52:17;;;;;;;;;;;;;;;5.60;100.00;99416.69;5048623;28;20066;-74
2024/01/01 03:54:42;;;;;;;;;;;;;;;5.58;100.00;99408.06;5054521;28;19990;-74
2024/01/01 03:57:07;;;;;;;;;;;;;;;5.66;100.00;99387.53;5057143;28;19932;-73
2024/01/01 03:59:32;;;;;;;;;;;;;;;5.68;100.00;99401.50;5063541;28;19921;-74
2024/01/01 04:02:01;;;;;;;;;;;;;;;5.63;100.00;99409.31;5057093;28;19928;-75
2024/01/01 04:04:26;;;;;;;;;;;;;;;5.65;100.00;99418.75;5051291;28;20289;-75
2024/01/01 04:06:51;;;;;;;;;;;;;;;5.57;100.00;99390.41;5040064;28;20376;-75
2024/01/01 04:09:19;;;;;;;;;;;;;;;5.61;100.00;99413.00;5041748;28;19920;-75
2024/01/01 04:11:44;;;;;;;;;;;;;;;5.65;100.00;99409.94;5052046;28;20031;-75
2024/01/01 04:14:09;;;;;;;;;;;;;;;5.68;100.00;99413.03;5053683;28;20497;-74
2024/01/01 04:16:35;;;;;;;;;;;;;;;5.70;100.00;99426.16;5050488;28;19921;-74
2024/01/01 04:19:01;;;;;;;;;;;;;;;5.73;100.00;99412.41;5042417;28;19927;-75
2024/01/01 04:21:26;;;;;;;;;;;;;;;5.74;100.00;99408.72;5050619;28;19921;-75
2024/01/01 04:23:54;;;;;;;;;;;;;;;5.73;100.00;99401.75;5080600;22;19960;-75
2024/01/01 04:26:19;;;;;;;;;;;;;;;5.65;100.00;99392.06;5063453;28;19928;-74
2024/01/01 04:28:44;;;;;;;;;;;;;;;5.59;100.00;99409.72;5077892;28;20066;-74
2024/01/01 04:31:10;;;;;;;;;;;;;;;5.51;100.00;99404.53;5069502;28;19920;-74
2024/01/01 04:33:35;;;;;;;;;;;;;;;5.52;100.00;99384.84;5067943;28;19925;-74
2024/01/01 04:36:00;;;;;;;;;;;;;;;5.51;100.00;99395.72;5070655;28;19935;-75
2024/01/01 04:38:25;;;;;;;;;;;;;;;5.50;100.00;99415.44;5071440;28;19927;-74
2024/01/01 04:40:50;;;;;;;;;;;;;;;5.58;100.00;99412.56;5069097;28;19920;-75
2024/01/01 04:43:19;;;;;;;;;;;;;;;5.56;100.00;99423.44;5071302;28;19935;-74
2024/01/01 04:45:44;;;;;;;;;;;;;;;5.58;100.00;99423.25;5069627;28;20034;-74
2024/01/01 04:48:09;;;;;;;;;;;;;;;5.67;100.00;99399.84;5065603;28;20007;-74
2024/01/01 04:50:34;;;;;;;;;;;;;;;5.69;100.00;99420.03;5069644;28;20041;-74
2024/01/01 04:53:00;;;;;;;;;;;;;;;5.70;99.77;99415.50;5071689;28;19943;-75
2024/01/01 04:55:25;;;;;;;;;;;;;;;5.72;99.42;99397.41;5073596;28;20272;-75
2024/01/01 04:57:50;;;;;;;;;;;;;;;5.73;99.06;99434.63;5079957;28;19920;-75
2024/01/01 05:00:15;;;;;;;;;;;;;;;5.73;99.90;99431.09;5095905;28;20275;-73
2024/01/01 05:02:41;;;;;;;;;;;;;;;5.73;99.79;99431.94;5084920;28;19924;-73
2024/01/01 05:05:26;;;;;;;;;;;;;;;5.72;99.59;99429.47;5066978;28;19924;-73
2024/01/01 05:07:54;;;;;;;;;;;;;;;5.75;98.96;99439.75;5074603;28;20011;-73
2024/01/01 05:10:19;;;;;;;;;;;;;;;5.68;99.20;99433.56;5073953;28;19921;-73
2024/01/01 05:12:44;;;;;;;;;;;;;;;5.66;99.34;99431.09;5051819;28;19927;-73
2024/01/01 05:15:12;;;;;;;;;;;;;;;5.64;99.48;99421.66;5071545;28;19917;-73
2024/01/01 05:17:37;;;;;;;;;;;;;;;5.59;99.48;99431.06;5074746;28;19974;-74
2024/01/01 05:20:03;;;;;;;;;;;;;;;5.66;99.36;99436.44;5074538;28;19921;-73
2024/01/01 05:22:29;;;;;;;;;;;;;;;5.72;98.35;99435.63;5067997;28;20061;-73
2024/01/01 05:24:54;;;;;;;;;;;;;;;5.72;98.29;99435.63;5077828;28;19963;-73
2024/01/01 05:27:19;;;;;;;;;;;;;;;5.73;98.23;99436.44;5084386;28;19920;-73
2024/01/01 05:29:47;;;;;;;;;;;;;;;5.72;97.98;99445.47;5096474;28;19928;-73
2024/01/01 05:32:13;;;;;;;;;;;;;;;5.71;97.01;99443.84;5070535;28;19924;-73
2024/01/01 05:34:39;;;;;;;;;;;;;;;5.72;96.80;99450.81;5070825;28;20254;-73
2024/01/01 05:37:08;;;;;;;;;;;;;;;5.63;98.01;99446.69;5061831;28;19994;-73
2024/01/01 05:39:35;;;;;;;;;;;;;;;5.63;97.56;99457.38;5072217;28;19921;-73
2024/01/01 05:42:01;;;;;;;;;;;;;;;5.58;97.88;99466.78;5074847;28;19929;-73
2024/01/01 05:44:26;;;;;;;;;;;;;;;5.58;97.94;99460.63;5074789;28;19920;-73
2024/01/01 05:46:51;;;;;;;;;;;;;;;5.68;97.71;99447.75;5072701;28;19916;-74
2024/01/01 05:49:17;;;;;;;;;;;;;;;5.73;97.13;99442.63;5072997;28;19927;-73
2024/01/01 05:51:43;;;;;;;;;;;;;;;5.70;97.52;99450.19;5070121;28;19924;-73
2024/01/01 05:54:11;;;;;;;;;;;;;;;5.71;97.19;99462.53;5059082;28;19920;-73
2024/01/01 05:56:37;;;;;;;;;;;;;;;5.71;97.05;99459.84;5073072;28;20713;-73
2024/01/01 05:59:05;;;;;;;;;;;;;;;5.68;97.31;99482.44;5072637;28;19928;-73
2024/01/01 06:01:30;;;;;;;;;;;;;;;5.73;97.74;99481.84;5068096;28;19939;-72
2024/01/01 06:03:56;;;;;;;;;;;;;;;5.71;97.74;99479.38;5061720;28;19921;-72
2024/01/01 06:06:23;;;;;;;;;;;;;;;5.71;98.15;99483.88;5063288;28;19935;-72
2024/01/01 06:08:49;;;;;;;;;;;;;;;5.56;99.45;99484.84;5072540;28;19916;-73
2024/01/01 06:11:14;;;;;;;;;;;;;;;5.60;99.64;99478.09;5073587;28;19924;-72
2024/01/01 06:13:39;;;;;;;;;;;;;;;5.56;100.00;99497.38;5072737;28;20011;-74
2024/01/01 06:16:05;;;;;;;;;;;;;;;5.50;100.00;99490.16;5072905;28;19946;-72
2024/01/01 06:18:30;;;;;;;;;;;;;;;5.55;100.00;99504.56;5073541;28;20018;-72
2024/01/01 06:20:56;;;;;;;;;;;;;;;5.54;99.41;99502.91;5073303;28;19959;-72
2024/01/01 06:23:21;;;;;;;;;;;;;;;5.63;98.83;99510.78;5073704;28;19916;-72
2024/01/01 06:25:46;;;;;;;;;;;;;;;5.71;98.47;99518.59;5073865;28;19995;-72
2024/01/01 06:28:11;;;;;;;;;;;;;;;5.65;98.47;99528.22;5073246;28;19921;-72
2024/01/01 06:30:37;;;;;;;;;;;;;;;5.66;97.98;99529.03;5072658;28;19924;-73
2024/01/01 06:33:02;;;;;;;;;;;;;;;5.70;98.11;99525.81;5074047;28;19923;-75
2024/01/01 06:35:30;;;;;;;;;;;;;;;5.67;98.55;99538.69;5073070;28;20533;-75
2024/01/01 06:37:55;;;;;;;;;;;;;;;5.73;97.58;99529.91;5072462;28;19920;-74
2024/01/01 06:40:21;;;;;;;;;;;;;;;5.70;97.60;99516.94;5165299;22;19936;-74
2024/01/01 06:42:46;;;;;;;;;;;;;;;5.72;97.00;99537.09;5087474;28;19924;-74
2024/01/01 06:45:11;;;;;;;;;;;;;;;5.68;97.61;99546.53;5073654;28;19941;-74
2024/01/01 06:47:38;;;;;;;;;;;;;;;5.72;98.05;99555.81;5073235;28;20019;-74
2024/01/01 06:50:03;;;;;;;;;;;;;;;5.66;98.20;99537.03;5084712;28;20360;-74
2024/01/01 06:52:28;;;;;;;;;;;;;;;5.68;98.48;99562.53;5087400;28;19935;-74
2024/01/01 06:54:54;;;;;;;;;;;;;;;5.68;98.13;99556.38;5075891;28;19934;-74
2024/01/01 06:57:19;;;;;;;;;;;;;;;5.59;98.91;99558.38;5085409;28;19924;-74
2024/01/01 06:59:44;;;;;;;;;;;;;;;5.58;98.84;99554.06;5084779;28;19957;-74
2024/01/01 07:02:09;;;;;;;;;;;;;;;5.54;98.81;99564.31;5092590;28;19921;-73
2024/01/01 07:04:36;;;;;;;;;;;;;;;5.53;99.41;99575.19;5088559;28;19931;-74
2024/01/01 07:07:03;;;;;;;;;;;;;;;5.55;98.65;99576.63;5073498;28;20282;-74
2024/01/01 07:09:28;;;;;;;;;;;;;;;5.56;99.11;99583.63;5087553;28;19927;-74
2024/01/01 07:11:54;;;;;;;;;;;;;;;5.55;99.25;99576.63;5079975;22;20304;-74
2024/01/01 07:14:20;;;;;;;;;;;;;;;5.49;99.32;99587.28;5072889;28;19989;-74
2024/01/01 07:16:45;;;;;;;;;;;;;;;5.42;99.75;99584.56;5073301;28;20545;-74
2024/01/01 07:19:19;;;;;;;;;;;;;;;5.40;100.00;99583.94;5078469;22;19932;-74
2024/01/01 07:21:46;;;;;;;;;;;;;;;5.43;99.99;99586.22;5067190;28;20380;-74
2024/01/01 07:24:12;;;;;;;;;;;;;;;5.39;100.00;99596.44;5080370;22;19931;-74
2024/01/01 07:26:37;;;;;;;;;;;;;;;5.28;100.00;99591.63;5067979;28;19916;-74
2024/01/01 07:29:02;;;;;;;;;;;;;;;5.19;100.00;99611.47;5072241;28;19935;-73
2024/01/01 07:31:28;;;;;;;;;;;;;;;5.24;100.00;99615.22;5070554;28;20403;-76
2024/01/01 07:33:53;;;;;;;;;;;;;;;5.31;100.00;99626.75;5070258;28;20345;-74
2024/01/01 07:36:18;;;;;;;;;;;;;;;5.32;100.00;99625.75;5066903;28;19931;-73
2024/01/01 07:38:43;;;;;;;;;;;;;;;5.33;100.00;99607.91;5071008;28;19928;-74
2024/01/01 07:41:09;;;;;;;;;;;;;;;5.26;100.00;99626.53;5064196;28;19928;-74
2024/01/01 07:43:49;;;;;;;;;;;;;;;5.28;100.00;99632.50;5138938;22;20131;-74
2024/01/01 07:46:24;;;;;;;;;;;;;;;5.30;100.00;99643.78;5063131;28;19931;-75
2024/01/01 07:48:49;;;;;;;;;;;;;;;5.26;100.00;99655.03;5069068;28;19935;-74
2024/01/01 07:51:14;;;;;;;;;;;;;;;5.21;100.00;99652.09;5069926;28;19928;-76
2024/01/01 07:53:39;;;;;;;;;;;;;;;5.20;100.00;99639.81;5070063;28;19932;-74
2024/01/01 07:56:05;;;;;;;;;;;;;;;5.19;100.00;99654.97;5065721;28;19928;-74
2024/01/01 07:58:33;;;;;;;;;;;;;;;5.19;100.00;99662.97;5080725;28;19995;-75
2024/01/01 08:00:59;;;;;;;;;;;;;;;5.21;100.00;99662.78;5103907;28;19918;-73
2024/01/01 08:03:25;;;;;;;;;;;;;;;5.29;100.00;99666.19;5087142;28;19924;-74
2024/01/01 08:05:50;;;;;;;;;;;;;;;5.28;100.00;99661.00;5071043;28;19924;-74
2024/01/01 08:08:16;;;;;;;;;;;;;;;5.26;100.00;99677.22;5063711;28;20309;-74
2024/01/01 08:10:43;;;;;;;;;;;;;;;5.32;100.00;99671.09;5061984;28;19928;-74
2024/01/01 08:13:08;;;;;;;;;;;;;;;5.37;100.00;99677.72;5061745;28;20047;-73
2024/01/01 08:15:33;;;;;;;;;;;;;;;5.38;100.00;99666.03;5061258;28;20011;-73
2024/01/01 08:17:58;;;;;;;;;;;;;;;5.43;100.00;99677.78;5065519;28;19916;-74
2024/01/01 08:20:24;;;;;;;;;;;;;;;5.49;100.00;99686.03;5062033;28;19956;-75
2024/01/01 08:22:52;;;;;;;;;;;;;;;5.51;100.00;99673.31;5061362;28;19927;-75
2024/01/01 08:25:18;;;;;;;;;;;;;;;5.45;100.00;99682.94;5060953;28;19954;-75
2024/01/01 08:27:43;;;;;;;;;;;;;;;5.52;100.00;99683.78;5070179;28;19970;-74
2024/01/01 08:30:08;;;;;;;;;;;;;;;5.54;100.00;99687.09;5097862;28;19969;-75
2024/01/01 08:32:33;;;;;;;;;;;;;;;5.55;100.00;99688.75;5089103;28;19927;-75
2024/01/01 08:34:59;;;;;;;;;;;;;;;5.57;100.00;99694.72;5073094;28;19939;-75
2024/01/01 08:37:25;;;;;;;;;;;;;;;5.55;100.00;99695.94;5072830;28;19969;-76
2024/01/01 08:39:50;;;;;;;;;;;;;;;5.50;100.00;99703.69;5072942;28;20014;-76
2024/01/01 08:42:15;;;;;;;;;;;;;;;5.53;100.00;99701.47;5071436;28;19921;-75
2024/01/01 08:44:43;;;;;;;;;;;;;;;5.52;100.00;99707.81;5072816;28;19930;-75
2024/01/01 08:47:15;;;;;;;;;;;;;;;5.48;100.00;99706.53;5067831;28;19928;-75
2024/01/01 08:49:41;;;;;;;;;;;;;;;5.58;100.00;99711.56;5072130;28;19920;-75
2024/01/01 08:52:06;;;;;;;;;;;;;;;5.63;100.00;99703.00;5073629;28;19921;-75
2024/01/01 08:54:31;;;;;;;;;;;;;;;5.64;100.00;99720.66;5074266;28;19925;-75
2024/01/01 08:57:00;;;;;;;;;;;;;;;5.63;100.00;99711.00;5095977;28;19908;-76
2024/01/01 08:59:25;;;;;;;;;;;;;;;5.69;100.00;99721.75;5088268;28;19924;-75
2024/01/01 09:01:50;;;;;;;;;;;;;;;5.67;100.00;99718.44;5076573;28;19920;-75
2024/01/01 09:04:17;;;;;;;;;;;;;;;5.69;100.00;99732.41;5075677;28;19916;-74
2024/01/01 09:06:42;;;;;;;;;;;;;;;5.71;100.00;99732.22;5068296;28;19920;-75
2024/01/01 09:09:09;;;;;;;;;;;;;;;5.75;100.00;99744.16;5074201;28;20370;-74
2024/01/01 09:11:35;;;;;;;;;;;;;;;5.74;100.00;99723.81;5064334;28;19936;-74
2024/01/01 09:14:00;;;;;;;;;;;;;;;5.71;100.00;99727.72;5073521;28;19934;-75
2024/01/01 09:16:29;;;;;;;;;;;;;;;5.73;100.00;99744.38;5075338;28;19963;-74
2024/01/01 09:18:55;;;;;;;;;;;;;;;5.69;100.00;99745.78;5073634;28;19924;-74
2024/01/01 09:21:20;;;;;;;;;;;;;;;5.69;100.00;99742.25;5075845;28;20035;-75
2024/01/01 09:23:45;;;;;;;;;;;;;;;5.66;100.00;99761.31;5286883;22;19936;-74
2024/01/01 09:26:12;;;;;;;;;;;;;;;5.61;100.00;99736.06;5118662;22;19920;-74
2024/01/01 09:28:37;;;;;;;;;;;;;;;5.59;100.00;99762.13;5102827;28;19942;-74
2024/01/01 09:31:02;;;;;;;;;;;;;;;5.47;100.00;99767.13;5098776;28;19912;-74
2024/01/01 09:33:27;;;;;;;;;;;;;;;5.40;100.00;99765.41;5096953;28;20259;-74
2024/01/01 09:35:55;;;;;;;;;;;;;;;5.37;100.00;99773.78;5094691;28;19928;-74
2024/01/01 09:38:20;;;;;;;;;;;;;;;5.41;100.00;99788.41;5093133;28;19930;-74
2024/01/01 09:40:45;;;;;;;;;;;;;;;5.38;100.00;99786.13;5091225;28;19924;-74
2024/01/01 09:43:14;;;;;;;;;;;;;;;5.45;100.00;99797.72;5090279;28;20324;-74
2024/01/01 09:45:39;;;;;;;;;;;;;;;5.51;100.00;99802.28;5062081;28;19974;-74
2024/01/01 09:48:05;;;;;;;;;;;;;;;5.60;100.00;99803.81;5084456;28;20295;-74
2024/01/01 09:50:30;;;;;;;;;;;;;;;5.62;100.00;99811.63;5078602;28;20418;-74
2024/01/01 09:52:56;;;;;;;;;;;;;;;5.51;100.00;99809.47;5067704;28;19921;-74
2024/01/01 09:55:21;;;;;;;;;;;;;;;5.55;100.00;99814.22;5083047;28;19928;-74
2024/01/01 09:57:47;;;;;;;;;;;;;;;5.51;100.00;99806.78;5085354;28;19958;-74
2024/01/01 10:00:18;;;;;;;;;;;;;;;5.58;100.00;99824.53;5092582;28;19920;-75
2024/01/01 10:02:44;;;;;;;;;;;;;;;5.47;100.00;99827.72;5091879;28;19943;-74
2024/01/01 10:05:21;;;;;;;;;;;;;;;5.51;100.00;99825.47;5092650;28;19932;-74
2024/01/01 10:07:47;;;;;;;;;;;;;;;5.38;100.00;99807.47;5092558;28;19920;-74
2024/01/01 10:10:18;;;;;;;;;;;;;;;5.36;100.00;99833.53;5092730;28;19923;-75
2024/01/01 10:12:45;;;;;;;;;;;;;;;5.42;100.00;99827.44;5057319;28;19928;-75
2024/01/01 10:15:10;;;;;;;;;;;;;;;5.47;100.00;99833.03;5072043;28;20023;-75
2024/01/01 10:17:36;;;;;;;;;;;;;;;5.50;100.00;99829.97;5073521;28;20022;-75
2024/01/01 10:20:01;;;;;;;;;;;;;;;5.60;100.00;99838.53;5397379;22;19974;-75
2024/01/01 10:22:30;;;;;;;;;;;;;;;5.61;100.00;99834.84;5092087;28;19931;-75
2024/01/01 10:25:08;;;;;;;;;;;;;;;5.64;100.00;99843.50;5091428;28;19948;-75
2024/01/01 10:27:33;;;;;;;;;;;;;;;5.66;100.00;99844.94;5076543;28;19924;-74
2024/01/01 10:29:58;;;;;;;;;;;;;;;5.75;100.00;99845.66;5071555;28;20448;-75
2024/01/01 10:32:26;;;;;;;;;;;;;;;5.73;100.00;99853.84;5091075;28;20427;-75
2024/01/01 10:35:07;;;;;;;;;;;;;;;5.69;100.00;99846.41;5092313;22;19928;-75
2024/01/01 10:37:44;;;;;;;;;;;;;;;5.72;100.00;99848.69;5042593;28;19926;-75
2024/01/01 10:40:21;;;;;;;;;;;;;;;5.63;100.00;99853.31;5092304;28;19935;-75
2024/01/01 10:42:49;;;;;;;;;;;;;;;5.79;100.00;99852.25;5085143;28;20046;-75
2024/01/01 10:45:26;;;;;;;;;;;;;;;5.95;100.00;99861.03;5084836;28;19945;-75
2024/01/01 10:47:54;;;;;;;;;;;;;;;6.06;100.00;99865.91;5086792;28;19965;-76
2024/01/01 10:50:32;;;;;;;;;;;;;;;6.03;100.00;99866.28;5051842;28;19925;-76
2024/01/01 10:53:28;;;;;;;;;;;;;;;6.03;100.00;99874.28;5060846;28;20018;-76
2024/01/01 10:56:28;;;;;;;;;;;;;;;5.73;100.00;99872.56;5079134;28;19920;-76
2024/01/01 10:59:16;;;;;;;;;;;;;;;5.54;100.00;99881.97;5014427;28;20372;-76
2024/01/01 11:01:51;;;;;;;;;;;;;;;5.51;100.00;99879.69;5092510;28;19916;-76
2024/01/01 11:04:19;;;;;;;;;;;;;;;5.49;100.00;99867.53;5090603;28;19927;-76
2024/01/01 11:06:57;;;;;;;;;;;;;;;5.36;100.00;99871.72;5092541;28;19923;-76
2024/01/01 11:09:22;;;;;;;;;;;;;;;5.37;100.00;99883.22;5089555;28;20004;-76
2024/01/01 11:11:47;;;;;;;;;;;;;;;5.49;100.00;99886.22;5088581;28;19966;-77
2024/01/01 11:14:38;;;;;;;;;;;;;;;5.28;100.00;99888.66;5091582;28;19920;-76
2024/01/01 11:17:22;;;;;;;;;;;;;;;5.50;100.00;99883.38;5092098;28;20073;-76
2024/01/01 11:19:49;;;;;;;;;;;;;;;5.60;100.00;99888.41;5090374;28;19931;-76
2024/01/01 11:22:35;;;;;;;;;;;;;;;5.53;100.00;99896.34;5079883;28;19973;-76
2024/01/01 11:25:19;;;;;;;;;;;;;;;5.72;100.00;99888.75;5050495;28;19921;-76
2024/01/01 11:27:57;;;;;;;;;;;;;;;5.90;100.00;99893.69;5073648;28;20033;-76
2024/01/01 11:30:22;;;;;;;;;;;;;;;5.72;100.00;99900.28;5090318;28;20372;-76
2024/01/01 11:32:47;;;;;;;;;;;;;;;5.71;100.00;99901.28;5089023;28;19995;-76
2024/01/01 11:35:15;;;;;;;;;;;;;;;5.69;100.00;99895.31;5090149;28;20157;-76
2024/01/01 11:37:41;;;;;;;;;;;;;;;6.06;100.00;99892.59;5088526;22;20295;-76
2024/01/01 11:40:06;;;;;;;;;;;;;;;6.43;100.00;99911.25;5085000;28;19927;-76
2024/01/01 11:42:31;;;;;;;;;;;;;;;6.79;100.00;99891.56;5087586;28;19969;-76
2024/01/01 11:45:18;;;;;;;;;;;;;;;6.77;100.00;99891.75;5093050;28;19916;-75
2024/01/01 11:47:44;;;;;;;;;;;;;;;6.72;100.00;99883.47;5149148;22;19936;-76
2024/01/01 11:50:09;;;;;;;;;;;;;;;6.63;100.00;99903.38;5081674;28;19924;-75
2024/01/01 11:52:35;;;;;;;;;;;;;;;6.60;100.00;99898.41;5100200;28;19932;-76
2024/01/01 11:55:00;;;;;;;;;;;;;;;6.51;100.00;99909.25;5108726;28;19985;-75
2024/01/01 11:57:26;;;;;;;;;;;;;;;6.47;100.00;99899.13;5090382;28;20021;-76
2024/01/01 11:59:51;;;;;;;;;;;;;;;6.24;100.00;99905.53;5085098;28;19920;-76
2024/01/01 12:02:17;;;;;;;;;;;;;;;6.16;100.00;99909.16;5092722;28;19946;-76
2024/01/01 12:04:44;;;;;;;;;;;;;;;6.18;100.00;99900.94;5080553;28;19946;-76
2024/01/01 12:07:09;;;;;;;;;;;;;;;6.04;100.00;99892.81;5070303;28;19982;-76
2024/01/01 12:09:35;;;;;;;;;;;;;;;5.98;100.00;99900.75;5091745;28;20039;-76
2024/01/01 12:12:05;;;;;;;;;;;;;;;6.05;100.00;99894.47;5074237;28;19924;-76
2024/01/01 12:14:32;;;;;;;;;;;;;;;5.94;100.00;99897.59;5090104;28;20299;-76
2024/01/01 13:30:42;;;;;;;;;;;;;;;5.43;100.00;99951.88;5027333;28;20003;-75
2024/01/01 13:33:45;;;;;;;;;;;;;;;5.35;100.00;99941.28;5027447;28;20024;-76
2024/01/01 13:36:19;;;;;;;;;;;;;;;5.43;100.00;99950.03;5026805;28;19929;-77
2024/01/01 13:38:53;;;;;;;;;;;;;;;5.59;100.00;99951.66;5024815;28;19983;-77
2024/01/01 13:49:25;;;;;;;;;;;;;;;6.56;100.00;99953.28;5186507;22;19925;-76
2024/01/01 13:51:56;;;;;;;;;;;;;;;6.45;100.00;99963.50;4934704;28;19976;-77
2024/01/01 13:54:25;;;;;;;;;;;;;;;6.03;100.00;99967.78;5014643;28;20688;-77
2024/01/01 13:57:18;;;;;;;;;;;;;;;6.12;100.00;99977.38;5016991;28;19922;-77
2024/01/01 13:59:43;;;;;;;;;;;;;;;6.05;100.00;99979.13;5018440;28;20008;-77
2024/01/01 14:02:20;;;;;;;;;;;;;;;6.20;100.00;99977.22;5012121;28;20391;-77
2024/01/01 14:08:01;;;;;;;;;;;;;;;5.99;100.00;99991.38;5011923;28;20392;-76
2024/01/01 14:13:41;;;;;;;;;;;;;;;5.78;100.00;99989.50;5013099;28;20031;-77
2024/01/01 14:28:57;;;;;;;;;;;;;;;6.37;100.00;99985.00;5010230;28;19929;-77
2024/01/01 15:04:12;;;;;;;;;;;;;;;6.05;100.00;100043.25;5018026;28;19927;-77